createdAt,value
2023-05-04T00:01:57.257Z,11.20
2023-05-04T00:04:24.057Z,11.10
2023-05-04T00:06:50.751Z,11.10
2023-05-04T00:09:17.896Z,11.10
2023-05-04T00:11:44.604Z,11.10
2023-05-04T00:14:11.481Z,11.10
2023-05-04T00:16:38.262Z,11.10
2023-05-04T00:19:04.888Z,11.00
2023-05-04T00:21:31.589Z,11.00
2023-05-04T00:23:58.292Z,10.90
2023-05-04T00:26:25.069Z,11.00
2023-05-04T00:28:51.634Z,11.00
2023-05-04T00:31:19.058Z,10.90
2023-05-04T00:33:46.073Z,10.80
2023-05-04T00:36:13.960Z,10.80
2023-05-04T00:38:49.113Z,10.80
2023-05-04T00:41:17.100Z,10.80
2023-05-04T00:43:44.456Z,10.80
2023-05-04T00:46:11.881Z,10.70
2023-05-04T00:48:39.414Z,10.70
2023-05-04T00:51:07.664Z,10.70
2023-05-04T00:53:36.622Z,10.60
2023-05-04T00:56:04.343Z,10.50
2023-05-04T00:58:32.265Z,10.50
2023-05-04T01:00:59.050Z,10.50
2023-05-04T01:03:27.432Z,10.50
2023-05-04T01:06:20.363Z,10.40
2023-05-04T01:08:57.673Z,10.30
2023-05-04T01:11:38.627Z,10.40
2023-05-04T01:14:06.989Z,10.30
2023-05-04T01:16:33.725Z,10.40
2023-05-04T01:19:00.388Z,10.40
2023-05-04T01:21:30.711Z,10.30
2023-05-04T01:23:58.049Z,10.30
2023-05-04T01:26:28.978Z,10.20
2023-05-04T01:29:06.078Z,10.20
2023-05-04T01:31:36.627Z,10.20
2023-05-04T01:34:04.157Z,10.20
2023-05-04T01:36:31.674Z,10.20
2023-05-04T01:38:59.706Z,10.10
2023-05-04T01:41:30.169Z,10.10
2023-05-04T01:43:57.556Z,10.10
2023-05-04T01:46:24.274Z,10.10
2023-05-04T01:48:51.156Z,10.10
2023-05-04T01:51:17.771Z,10.00
2023-05-04T01:53:44.433Z,9.90
2023-05-04T01:56:11.204Z,9.90
2023-05-04T01:58:37.905Z,10.00
2023-05-04T02:01:04.795Z,9.90
2023-05-04T02:03:31.656Z,9.90
2023-05-04T02:05:58.409Z,9.90
2023-05-04T02:08:25.183Z,9.90
2023-05-04T02:10:51.820Z,9.90
2023-05-04T02:13:19.389Z,9.80
2023-05-04T02:15:46.154Z,9.80
2023-05-04T02:18:12.858Z,9.80
2023-05-04T02:20:39.483Z,9.80
2023-05-04T02:23:06.211Z,9.80
2023-05-04T02:25:32.974Z,9.80
2023-05-04T02:27:59.562Z,9.90
2023-05-04T02:30:26.289Z,9.90
2023-05-04T02:32:52.905Z,9.90
2023-05-04T02:35:19.580Z,9.90
2023-05-04T02:37:46.189Z,9.90
2023-05-04T02:40:13.323Z,9.90
2023-05-04T02:42:39.898Z,9.60
2023-05-04T02:45:07.760Z,9.50
2023-05-04T02:47:35.571Z,9.50
2023-05-04T02:50:02.399Z,9.50
2023-05-04T02:52:29.129Z,9.50
2023-05-04T02:54:57.051Z,9.50
2023-05-04T02:57:23.650Z,9.60
2023-05-04T02:59:51.558Z,9.60
2023-05-04T03:02:18.167Z,9.60
2023-05-04T03:04:44.915Z,9.50
2023-05-04T03:07:11.708Z,9.50
2023-05-04T03:09:38.531Z,9.60
2023-05-04T03:12:05.914Z,9.60
2023-05-04T03:14:32.735Z,9.60
2023-05-04T03:16:59.471Z,9.60
2023-05-04T03:19:26.100Z,9.60
2023-05-04T03:21:52.720Z,9.60
2023-05-04T03:24:19.360Z,9.60
2023-05-04T03:26:47.164Z,9.60
2023-05-04T03:29:13.776Z,9.60
2023-05-04T03:31:40.642Z,9.50
2023-05-04T03:34:09.651Z,9.50
2023-05-04T03:36:36.308Z,9.50
2023-05-04T03:39:02.990Z,9.50
2023-05-04T03:41:29.619Z,9.50
2023-05-04T03:43:56.294Z,9.40
2023-05-04T03:46:23.070Z,9.40
2023-05-04T03:48:49.692Z,9.40
2023-05-04T03:51:16.483Z,9.40
2023-05-04T03:53:44.682Z,9.40
2023-05-04T03:56:11.833Z,9.40
2023-05-04T03:58:38.442Z,9.40
2023-05-04T04:01:05.198Z,9.40
2023-05-04T04:03:32.011Z,9.50
2023-05-04T04:05:59.139Z,9.50
2023-05-04T04:08:26.180Z,9.50
2023-05-04T04:10:52.779Z,9.50
2023-05-04T04:13:19.507Z,9.60
2023-05-04T04:15:46.638Z,9.50
2023-05-04T04:18:13.580Z,9.50
2023-05-04T04:20:40.210Z,9.60
2023-05-04T04:23:06.937Z,9.60
2023-05-04T04:25:33.851Z,9.50
2023-05-04T04:28:00.629Z,9.60
2023-05-04T04:30:31.009Z,9.60
2023-05-04T04:32:57.714Z,9.60
2023-05-04T04:35:24.826Z,9.70
2023-05-04T04:37:51.584Z,9.70
2023-05-04T04:40:18.311Z,9.80
2023-05-04T04:42:45.712Z,9.70
2023-05-04T04:45:12.620Z,9.70
2023-05-04T04:47:40.239Z,9.80
2023-05-04T04:50:07.559Z,9.80
2023-05-04T04:52:34.855Z,9.80
2023-05-04T04:55:02.029Z,9.80
2023-05-04T04:57:31.226Z,9.80
2023-05-04T04:59:58.324Z,9.90
2023-05-04T05:02:25.071Z,9.90
2023-05-04T05:04:51.794Z,9.90
2023-05-04T05:07:18.878Z,10.00
2023-05-04T05:09:45.605Z,10.00
2023-05-04T05:12:12.213Z,10.00
2023-05-04T05:14:38.825Z,10.10
2023-05-04T05:17:06.257Z,10.10
2023-05-04T05:19:37.253Z,10.10
2023-05-04T05:22:04.457Z,10.20
2023-05-04T05:24:31.385Z,10.30
2023-05-04T05:26:58.326Z,10.30
2023-05-04T05:29:25.683Z,10.30
2023-05-04T05:31:52.606Z,10.30
2023-05-04T05:34:19.252Z,10.40
2023-05-04T05:36:45.935Z,10.40
2023-05-04T05:39:12.676Z,10.50
2023-05-04T05:41:39.311Z,10.60
2023-05-04T05:44:06.264Z,10.70
2023-05-04T05:46:33.186Z,10.70
2023-05-04T05:48:59.935Z,10.80
2023-05-04T05:51:26.558Z,10.80
2023-05-04T05:53:53.222Z,10.90
2023-05-04T05:56:19.988Z,10.90
2023-05-04T05:58:46.665Z,10.90
2023-05-04T06:01:14.215Z,11.00
2023-05-04T06:03:41.306Z,11.10
2023-05-04T06:06:08.627Z,11.20
2023-05-04T06:08:35.273Z,11.30
2023-05-04T06:11:02.728Z,11.40
2023-05-04T06:13:29.524Z,11.40
2023-05-04T06:15:56.256Z,11.50
2023-05-04T06:18:22.996Z,11.60
2023-05-04T06:20:49.815Z,11.70
2023-05-04T06:23:16.505Z,11.80
2023-05-04T06:25:43.190Z,11.80
2023-05-04T06:28:09.917Z,11.90
2023-05-04T06:30:36.635Z,11.90
2023-05-04T06:33:04.522Z,11.90
2023-05-04T06:35:31.528Z,11.90
2023-05-04T06:37:58.536Z,12.00
2023-05-04T06:40:26.153Z,11.90
2023-05-04T06:42:52.916Z,12.00
2023-05-04T06:45:19.604Z,12.10
2023-05-04T06:47:46.770Z,12.10
2023-05-04T06:50:14.197Z,12.10
2023-05-04T06:52:42.342Z,12.10
2023-05-04T06:55:09.347Z,12.00
2023-05-04T06:57:36.128Z,11.90
2023-05-04T07:00:04.543Z,11.90
2023-05-04T07:02:31.551Z,12.10
2023-05-04T07:04:58.197Z,12.00
2023-05-04T07:07:24.927Z,12.10
2023-05-04T07:09:51.651Z,12.20
2023-05-04T07:12:18.707Z,12.40
2023-05-04T07:14:45.425Z,12.30
2023-05-04T07:17:14.029Z,12.40
2023-05-04T07:19:40.642Z,12.50
2023-05-04T07:22:07.417Z,12.60
2023-05-04T07:24:34.014Z,12.70
2023-05-04T07:27:01.185Z,12.80
2023-05-04T07:29:27.840Z,12.50
2023-05-04T07:31:54.597Z,12.50
2023-05-04T07:34:23.212Z,12.60
2023-05-04T07:36:51.936Z,12.80
2023-05-04T07:39:18.601Z,13.00
2023-05-04T07:41:46.268Z,13.10
2023-05-04T07:44:14.203Z,13.20
2023-05-04T07:46:40.816Z,13.20
2023-05-04T07:49:07.616Z,13.50
2023-05-04T07:51:34.325Z,13.30
2023-05-04T07:54:00.985Z,13.60
2023-05-04T07:56:27.621Z,13.80
2023-05-04T07:58:54.392Z,14.10
2023-05-04T08:01:21.184Z,14.30
2023-05-04T08:03:48.502Z,14.20
2023-05-04T08:06:15.326Z,14.00
2023-05-04T08:08:42.049Z,14.00
2023-05-04T08:11:19.283Z,14.10
2023-05-04T08:13:49.239Z,14.00
2023-05-04T08:16:16.185Z,14.20
2023-05-04T08:18:43.426Z,14.20
2023-05-04T08:21:10.065Z,14.30
2023-05-04T08:23:36.908Z,14.30
2023-05-04T08:26:04.872Z,14.40
2023-05-04T08:28:35.206Z,14.70
2023-05-04T08:31:01.909Z,14.50
2023-05-04T08:33:28.619Z,14.60
2023-05-04T08:35:55.228Z,14.90
2023-05-04T08:38:22.170Z,14.90
2023-05-04T08:40:50.466Z,15.00
2023-05-04T08:43:17.534Z,15.20
2023-05-04T08:45:45.734Z,15.20
2023-05-04T08:48:13.375Z,15.20
2023-05-04T08:50:40.016Z,15.50
2023-05-04T08:53:11.201Z,15.90
2023-05-04T08:55:39.577Z,16.10
2023-05-04T08:58:12.919Z,16.10
2023-05-04T09:00:41.192Z,16.40
2023-05-04T09:03:10.692Z,16.00
2023-05-04T09:05:38.318Z,16.30
2023-05-04T09:08:05.598Z,16.60
2023-05-04T09:10:33.222Z,16.80
2023-05-04T09:13:00.073Z,16.90
2023-05-04T09:15:27.115Z,17.20
2023-05-04T09:18:01.814Z,17.50
2023-05-04T09:20:30.025Z,17.30
2023-05-04T09:23:06.888Z,17.60
2023-05-04T09:25:46.183Z,18.20
2023-05-04T09:28:12.987Z,18.30
2023-05-04T09:30:39.651Z,18.70
2023-05-04T09:33:06.488Z,18.80
2023-05-04T09:35:34.301Z,18.90
2023-05-04T09:38:01.524Z,18.80
2023-05-04T09:40:36.006Z,19.10
2023-05-04T09:43:02.827Z,19.50
2023-05-04T09:45:43.713Z,19.40
2023-05-04T09:48:29.115Z,19.10
2023-05-04T09:50:57.477Z,19.50
2023-05-04T09:53:26.034Z,19.90
2023-05-04T09:56:17.774Z,20.60
2023-05-04T09:58:46.266Z,21.00
2023-05-04T10:01:12.954Z,20.90
2023-05-04T10:03:40.019Z,20.50
2023-05-04T10:06:08.836Z,20.50
2023-05-04T10:08:36.970Z,20.60
2023-05-04T10:11:03.837Z,20.90
2023-05-04T10:13:30.592Z,21.00
2023-05-04T10:16:18.354Z,20.70
2023-05-04T10:18:55.078Z,20.90
2023-05-04T10:21:30.874Z,20.80
2023-05-04T10:23:57.550Z,21.00
2023-05-04T10:26:55.254Z,21.40
2023-05-04T10:29:24.960Z,21.60
2023-05-04T10:31:53.465Z,21.50
2023-05-04T10:34:29.174Z,22.00
2023-05-04T10:36:56.812Z,21.90
2023-05-04T10:39:30.137Z,22.40
2023-05-04T10:42:08.866Z,23.10
2023-05-04T10:44:49.104Z,23.10
2023-05-04T10:47:15.735Z,22.60
2023-05-04T10:49:42.689Z,22.80
2023-05-04T10:52:16.118Z,22.80
2023-05-04T10:54:44.011Z,23.60
2023-05-04T10:57:12.570Z,24.20
2023-05-04T10:59:40.013Z,23.70
2023-05-04T11:02:07.567Z,24.10
2023-05-04T11:04:35.203Z,24.40
2023-05-04T11:07:06.807Z,24.70
2023-05-04T11:09:38.156Z,24.70
2023-05-04T11:12:06.145Z,24.00
2023-05-04T11:14:37.554Z,24.00
2023-05-04T11:17:26.761Z,23.80
2023-05-04T11:19:55.117Z,23.70
2023-05-04T11:22:21.848Z,23.10
2023-05-04T11:24:48.843Z,24.60
2023-05-04T11:27:23.263Z,23.80
2023-05-04T11:30:04.345Z,23.90
2023-05-04T11:32:46.746Z,24.60
2023-05-04T11:35:17.185Z,25.10
2023-05-04T11:37:45.367Z,24.60
2023-05-04T11:40:17.603Z,23.60
2023-05-04T11:42:44.795Z,23.90
2023-05-04T11:45:16.936Z,24.10
2023-05-04T11:47:44.580Z,24.30
2023-05-04T11:50:13.743Z,24.40
2023-05-04T11:52:41.407Z,26.10
2023-05-04T11:55:13.462Z,25.40
2023-05-04T11:57:40.467Z,25.20
2023-05-04T12:00:08.956Z,24.50
2023-05-04T12:02:35.968Z,24.80
2023-05-04T12:05:03.443Z,25.60
2023-05-04T12:07:30.270Z,26.90
2023-05-04T12:09:56.923Z,27.80
2023-05-04T12:12:35.163Z,27.30
2023-05-04T12:15:01.896Z,27.50
2023-05-04T12:17:39.685Z,25.20
2023-05-04T12:20:07.486Z,24.40
2023-05-04T12:22:35.711Z,25.00
2023-05-04T12:25:02.470Z,25.50
2023-05-04T12:27:29.293Z,26.10
2023-05-04T12:29:56.160Z,27.00
2023-05-04T12:32:22.993Z,26.40
2023-05-04T12:34:49.617Z,25.50
2023-05-04T12:37:16.184Z,26.00
2023-05-04T12:39:42.997Z,25.80
2023-05-04T12:42:09.616Z,26.20
2023-05-04T12:44:36.186Z,26.10
2023-05-04T12:47:02.915Z,25.20
2023-05-04T12:49:29.659Z,25.20
2023-05-04T12:51:56.490Z,26.20
2023-05-04T12:54:23.218Z,26.50
2023-05-04T12:56:49.865Z,26.30
2023-05-04T12:59:16.466Z,26.90
2023-05-04T13:01:43.252Z,26.70
2023-05-04T13:04:10.119Z,24.00
2023-05-04T13:06:36.801Z,24.10
2023-05-04T13:09:05.722Z,24.90
2023-05-04T13:11:32.562Z,25.50
2023-05-04T13:13:59.258Z,25.20
2023-05-04T13:16:28.145Z,24.60
2023-05-04T13:18:55.545Z,23.90
2023-05-04T13:21:22.247Z,23.10
2023-05-04T13:23:48.955Z,23.00
2023-05-04T13:26:15.883Z,22.90
2023-05-04T13:28:42.636Z,23.00
2023-05-04T13:31:10.191Z,23.00
2023-05-04T13:33:38.712Z,22.50
2023-05-04T13:36:06.725Z,22.10
2023-05-04T13:38:33.638Z,22.00
2023-05-04T13:41:00.441Z,21.80
2023-05-04T13:43:28.408Z,21.90
2023-05-04T13:45:56.964Z,21.90
2023-05-04T13:48:25.740Z,21.80
2023-05-04T13:50:52.694Z,22.00
2023-05-04T13:53:19.465Z,21.70
2023-05-04T13:55:46.600Z,21.60
2023-05-04T13:58:13.228Z,21.70
2023-05-04T14:00:40.075Z,21.60
2023-05-04T14:03:06.931Z,21.50
2023-05-04T14:05:35.340Z,21.50
2023-05-04T14:08:02.156Z,21.50
2023-05-04T14:10:28.780Z,21.40
2023-05-04T14:12:55.971Z,21.50
2023-05-04T14:15:23.231Z,21.40
2023-05-04T14:17:50.100Z,21.40
2023-05-04T14:20:17.090Z,21.30
2023-05-04T14:22:44.203Z,21.40
2023-05-04T14:25:10.867Z,21.50
2023-05-04T14:27:37.581Z,21.50
2023-05-04T14:30:05.223Z,21.50
2023-05-04T14:32:32.021Z,21.70
2023-05-04T14:35:07.993Z,21.50
2023-05-04T14:37:39.839Z,21.60
2023-05-04T14:40:13.279Z,21.60
2023-05-04T14:42:39.973Z,21.60
2023-05-04T14:45:08.369Z,21.50
2023-05-04T14:47:35.344Z,21.40
2023-05-04T14:50:02.284Z,21.40
2023-05-04T14:52:29.009Z,21.60
2023-05-04T14:54:55.685Z,21.70
2023-05-04T14:57:22.498Z,21.60
2023-05-04T14:59:49.087Z,21.50
2023-05-04T15:02:16.192Z,21.50
2023-05-04T15:04:42.867Z,21.30
2023-05-04T15:07:09.537Z,21.40
2023-05-04T15:09:38.060Z,21.30
2023-05-04T15:12:05.127Z,21.40
2023-05-04T15:14:31.720Z,21.40
2023-05-04T15:16:58.390Z,21.30
2023-05-04T15:19:25.122Z,21.40
2023-05-04T15:21:51.975Z,21.50
2023-05-04T15:24:18.733Z,21.50
2023-05-04T15:26:45.442Z,21.40
2023-05-04T15:29:12.190Z,21.40
2023-05-04T15:31:38.924Z,21.30
2023-05-04T15:34:05.620Z,21.30
2023-05-04T15:36:32.310Z,21.30
2023-05-04T15:38:59.117Z,21.30
2023-05-04T15:41:26.445Z,21.50
2023-05-04T15:43:53.123Z,21.50
2023-05-04T15:46:19.764Z,21.60
2023-05-04T15:48:46.475Z,21.60
2023-05-04T15:51:13.108Z,21.60
2023-05-04T15:53:40.010Z,21.40
2023-05-04T15:56:06.644Z,21.50
2023-05-04T15:58:33.513Z,21.40
2023-05-04T16:01:03.791Z,21.40
2023-05-04T16:03:31.482Z,21.40
2023-05-04T16:05:58.609Z,21.50
2023-05-04T16:08:26.015Z,21.50
2023-05-04T16:10:57.236Z,21.60
2023-05-04T16:13:24.420Z,21.70
2023-05-04T16:15:51.829Z,21.60
2023-05-04T16:18:18.960Z,21.50
2023-05-04T16:20:49.209Z,21.50
2023-05-04T16:23:17.379Z,21.40
2023-05-04T16:25:44.624Z,21.30
2023-05-04T16:28:11.598Z,21.30
2023-05-04T16:30:38.587Z,21.30
2023-05-04T16:33:05.446Z,21.20
2023-05-04T16:35:32.394Z,21.10
2023-05-04T16:37:59.153Z,21.10
2023-05-04T16:40:26.543Z,21.10
2023-05-04T16:42:53.192Z,21.10
2023-05-04T16:45:20.732Z,21.00
2023-05-04T16:47:47.399Z,21.10
2023-05-04T16:50:14.501Z,21.00
2023-05-04T16:52:41.737Z,20.90
2023-05-04T16:55:11.789Z,21.00
2023-05-04T16:57:39.161Z,20.90
2023-05-04T17:00:07.292Z,20.90
2023-05-04T17:02:34.653Z,20.80
2023-05-04T17:05:01.333Z,20.70
2023-05-04T17:07:28.558Z,20.80
2023-05-04T17:09:55.166Z,20.70
2023-05-04T17:12:23.401Z,20.70
2023-05-04T17:14:50.300Z,20.70
2023-05-04T17:17:17.040Z,20.70
2023-05-04T17:19:43.680Z,20.60
2023-05-04T17:22:11.136Z,20.60
2023-05-04T17:24:37.869Z,20.60
2023-05-04T17:27:04.652Z,20.60
2023-05-04T17:29:31.596Z,20.60
2023-05-04T17:31:58.344Z,20.60
2023-05-04T17:34:25.048Z,20.60
2023-05-04T17:36:51.767Z,20.50
2023-05-04T17:39:18.845Z,20.50
2023-05-04T17:41:48.799Z,20.30
2023-05-04T17:44:16.375Z,20.40
2023-05-04T17:46:43.490Z,20.30
2023-05-04T17:49:10.263Z,20.30
2023-05-04T17:51:37.275Z,20.30
2023-05-04T17:54:04.017Z,20.20
2023-05-04T17:56:30.760Z,20.20
2023-05-04T17:58:57.480Z,20.10
2023-05-04T18:01:24.248Z,20.10
2023-05-04T18:03:50.938Z,20.10
2023-05-04T18:06:17.802Z,20.00
2023-05-04T18:08:44.398Z,20.00
2023-05-04T18:11:12.288Z,19.90
2023-05-04T18:13:38.943Z,19.90
2023-05-04T18:16:05.751Z,19.80
2023-05-04T18:18:32.449Z,19.70
2023-05-04T18:21:00.706Z,19.70
2023-05-04T18:23:27.500Z,19.60
2023-05-04T18:25:54.146Z,19.50
2023-05-04T18:28:20.916Z,19.50
2023-05-04T18:30:47.652Z,19.40
2023-05-04T18:33:14.303Z,19.30
2023-05-04T18:35:41.241Z,19.20
2023-05-04T18:38:07.882Z,19.00
2023-05-04T18:40:34.515Z,18.90
2023-05-04T18:43:01.228Z,18.80
2023-05-04T18:45:27.911Z,18.60
2023-05-04T18:47:54.841Z,18.50
2023-05-04T18:50:21.562Z,18.50
2023-05-04T18:52:48.254Z,18.30
2023-05-04T18:55:14.960Z,18.20
2023-05-04T18:57:41.655Z,18.10
2023-05-04T19:00:09.285Z,18.00
2023-05-04T19:02:36.952Z,17.80
2023-05-04T19:05:03.788Z,17.70
2023-05-04T19:07:30.619Z,17.50
2023-05-04T19:09:57.581Z,17.50
2023-05-04T19:12:24.376Z,17.30
2023-05-04T19:14:51.138Z,17.20
2023-05-04T19:17:18.459Z,17.10
2023-05-04T19:19:45.092Z,17.10
2023-05-04T19:22:13.322Z,17.00
2023-05-04T19:24:40.071Z,16.80
2023-05-04T19:27:07.295Z,16.70
2023-05-04T19:29:34.099Z,16.60
2023-05-04T19:32:05.609Z,16.50
2023-05-04T19:34:42.808Z,16.40
2023-05-04T19:37:09.656Z,16.40
2023-05-04T19:39:36.558Z,16.40
2023-05-04T19:42:03.293Z,16.30
2023-05-04T19:44:29.945Z,16.20
2023-05-04T19:46:56.705Z,16.10
2023-05-04T19:49:24.835Z,16.00
2023-05-04T19:51:51.677Z,16.00
2023-05-04T19:54:18.278Z,16.00
2023-05-04T19:56:44.903Z,15.90
2023-05-04T19:59:11.614Z,15.90
2023-05-04T20:01:38.476Z,15.80
2023-05-04T20:04:08.171Z,15.70
2023-05-04T20:06:35.659Z,15.80
2023-05-04T20:09:03.665Z,15.70
2023-05-04T20:11:30.749Z,15.80
2023-05-04T20:13:57.409Z,15.70
2023-05-04T20:16:24.101Z,15.70
2023-05-04T20:18:50.976Z,15.60
2023-05-04T20:21:17.728Z,15.60
2023-05-04T20:23:44.510Z,15.60
2023-05-04T20:26:11.443Z,15.50
2023-05-04T20:28:38.597Z,15.50
2023-05-04T20:31:05.575Z,15.40
2023-05-04T20:33:32.186Z,15.40
2023-05-04T20:35:58.867Z,15.40
2023-05-04T20:38:25.902Z,15.50
2023-05-04T20:40:52.873Z,15.50
2023-05-04T20:43:19.730Z,15.50
2023-05-04T20:45:46.490Z,15.50
2023-05-04T20:48:13.167Z,15.40
2023-05-04T20:50:40.393Z,15.30
2023-05-04T20:53:07.287Z,15.30
2023-05-04T20:55:33.920Z,15.20
2023-05-04T20:58:00.659Z,15.30
2023-05-04T21:00:27.300Z,15.30
2023-05-04T21:02:54.703Z,15.30
2023-05-04T21:05:21.441Z,15.20
2023-05-04T21:07:48.097Z,15.20
2023-05-04T21:10:15.589Z,15.20
2023-05-04T21:12:42.290Z,15.10
2023-05-04T21:15:10.226Z,15.00
2023-05-04T21:17:36.821Z,14.90
2023-05-04T21:20:04.232Z,14.90
2023-05-04T21:22:30.878Z,14.90
2023-05-04T21:24:57.795Z,14.80
2023-05-04T21:27:24.457Z,14.80
2023-05-04T21:29:51.160Z,14.80
2023-05-04T21:32:17.815Z,14.80
2023-05-04T21:34:44.431Z,14.80
2023-05-04T21:37:10.992Z,14.80
2023-05-04T21:39:37.615Z,14.70
2023-05-04T21:42:04.506Z,14.70
2023-05-04T21:44:31.211Z,14.60
2023-05-04T21:46:58.099Z,14.60
2023-05-04T21:49:24.800Z,14.60
2023-05-04T21:51:51.429Z,14.50
2023-05-04T21:54:18.075Z,14.40
2023-05-04T21:56:45.003Z,14.40
2023-05-04T21:59:11.847Z,14.30
2023-05-04T22:01:38.518Z,14.30
2023-05-04T22:04:08.078Z,14.30
2023-05-04T22:06:34.830Z,14.20
2023-05-04T22:09:01.709Z,14.20
2023-05-04T22:11:28.597Z,14.20
2023-05-04T22:13:55.208Z,14.20
2023-05-04T22:16:22.026Z,14.10
2023-05-04T22:18:49.675Z,14.00
2023-05-04T22:21:16.425Z,14.00
2023-05-04T22:23:43.097Z,13.90
2023-05-04T22:26:09.767Z,13.90
2023-05-04T22:28:36.429Z,13.80
2023-05-04T22:31:03.230Z,13.80
2023-05-04T22:33:29.921Z,13.80
2023-05-04T22:35:56.645Z,13.70
2023-05-04T22:38:23.214Z,13.70
2023-05-04T22:40:50.146Z,13.60
2023-05-04T22:43:16.827Z,13.70
2023-05-04T22:45:43.705Z,13.50
2023-05-04T22:48:10.536Z,13.50
2023-05-04T22:50:37.306Z,13.60
2023-05-04T22:53:03.902Z,13.50
2023-05-04T22:55:30.621Z,13.50
2023-05-04T22:57:57.221Z,13.50
2023-05-04T23:00:24.049Z,13.50
2023-05-04T23:02:50.850Z,13.50
2023-05-04T23:05:17.752Z,13.60
2023-05-04T23:07:44.496Z,13.60
2023-05-04T23:10:11.152Z,13.60
2023-05-04T23:12:37.984Z,13.60
2023-05-04T23:15:06.429Z,13.70
2023-05-04T23:17:34.291Z,13.70
2023-05-04T23:20:00.902Z,13.80
2023-05-04T23:22:27.887Z,13.80
2023-05-04T23:24:54.468Z,13.80
2023-05-04T23:27:21.183Z,13.90
2023-05-04T23:29:47.758Z,13.90
2023-05-04T23:32:14.448Z,13.90
2023-05-04T23:34:41.023Z,13.90
2023-05-04T23:37:07.723Z,13.90
2023-05-04T23:39:34.646Z,13.80
2023-05-04T23:42:01.341Z,13.90
2023-05-04T23:44:27.972Z,14.00
2023-05-04T23:46:54.699Z,14.00
2023-05-04T23:49:21.321Z,13.90
2023-05-04T23:51:49.003Z,13.90
2023-05-04T23:54:15.745Z,14.10
2023-05-04T23:56:42.342Z,14.10
2023-05-04T23:59:10.567Z,14.00
